createdAt,value
2023-04-02T00:00:12.136Z,0.80
2023-04-02T00:02:55.171Z,0.60
2023-04-02T00:05:31.457Z,0.70
2023-04-02T00:08:03.440Z,0.98
2023-04-02T00:10:55.011Z,0.85
2023-04-02T00:13:29.457Z,0.47
2023-04-02T00:15:59.106Z,0.70
2023-04-02T00:18:27.294Z,0.93
2023-04-02T00:21:01.092Z,0.73
2023-04-02T00:23:28.567Z,0.82
2023-04-02T00:25:55.672Z,0.88
2023-04-02T00:28:24.400Z,1.30
2023-04-02T00:30:59.658Z,1.40
2023-04-02T00:33:31.623Z,2.95
2023-04-02T00:35:59.356Z,1.63
2023-04-02T00:38:31.009Z,1.30
2023-04-02T00:41:02.945Z,1.65
2023-04-02T00:43:36.609Z,1.92
2023-04-02T00:46:14.730Z,2.33
2023-04-02T00:48:58.652Z,2.20
2023-04-02T00:51:37.712Z,1.45
2023-04-02T00:54:10.497Z,1.52
2023-04-02T00:56:45.472Z,2.00
2023-04-02T00:59:48.944Z,1.80
2023-04-02T01:02:17.478Z,1.60
2023-04-02T01:05:02.381Z,1.98
2023-04-02T01:07:56.492Z,1.52
2023-04-02T01:11:12.246Z,1.80
2023-04-02T01:14:13.073Z,1.15
2023-04-02T01:16:56.198Z,1.35
2023-04-02T01:19:49.180Z,1.67
2023-04-02T01:22:35.219Z,1.50
2023-04-02T01:25:04.591Z,1.40
2023-04-02T01:28:11.503Z,1.35
2023-04-02T01:30:38.993Z,1.10
2023-04-02T01:33:07.163Z,1.33
2023-04-02T01:35:39.797Z,0.93
2023-04-02T01:38:25.806Z,1.55
2023-04-02T01:41:14.102Z,1.55
2023-04-02T01:43:57.002Z,1.58
2023-04-02T01:46:29.837Z,1.50
2023-04-02T01:49:01.620Z,1.38
2023-04-02T01:51:35.216Z,1.40
2023-04-02T01:54:06.781Z,1.42
2023-04-02T01:56:35.615Z,1.65
2023-04-02T01:59:05.977Z,2.17
2023-04-02T02:01:48.596Z,1.98
2023-04-02T02:04:17.049Z,2.53
2023-04-02T02:06:45.312Z,3.17
2023-04-02T02:09:22.023Z,2.67
2023-04-02T02:11:50.852Z,1.88
2023-04-02T02:14:24.966Z,1.55
2023-04-02T02:17:02.427Z,1.48
2023-04-02T02:19:52.181Z,1.70
2023-04-02T02:22:34.370Z,2.42
2023-04-02T02:25:07.664Z,2.70
2023-04-02T02:27:46.023Z,3.17
2023-04-02T02:30:37.143Z,3.53
2023-04-02T02:33:31.099Z,4.75
2023-04-02T02:36:12.546Z,4.07
2023-04-02T02:39:13.494Z,5.10
2023-04-02T02:44:41.124Z,7.93
2023-04-02T02:47:17.331Z,7.55
2023-04-02T02:49:52.958Z,7.97
2023-04-02T02:52:28.872Z,9.48
2023-04-02T02:55:15.466Z,8.68
2023-04-02T02:57:55.275Z,8.23
2023-04-02T03:00:26.621Z,8.30
2023-04-02T03:02:57.262Z,7.70
2023-04-02T03:05:28.626Z,8.48
2023-04-02T03:08:03.840Z,8.38
2023-04-02T03:10:50.632Z,9.52
2023-04-02T03:13:28.140Z,7.97
2023-04-02T03:16:27.323Z,8.82
2023-04-02T03:19:17.097Z,9.40
2023-04-02T03:21:49.493Z,8.75
2023-04-02T03:24:36.006Z,9.05
2023-04-02T03:27:42.563Z,8.57
2023-04-02T03:30:57.974Z,9.40
2023-04-02T03:33:55.902Z,11.90
2023-04-02T03:36:32.602Z,11.02
2023-04-02T03:39:35.457Z,12.82
2023-04-02T03:42:26.521Z,13.98
2023-04-02T03:45:12.569Z,12.75
2023-04-02T03:48:03.814Z,11.57
2023-04-02T03:50:44.931Z,14.80
2023-04-02T03:53:12.623Z,14.75
2023-04-02T03:55:42.673Z,16.25
2023-04-02T03:58:42.210Z,16.23
2023-04-02T04:01:34.740Z,18.42
2023-04-02T04:04:12.265Z,17.45
2023-04-02T04:06:43.703Z,18.38
2023-04-02T04:09:22.883Z,16.95
2023-04-02T04:11:56.637Z,17.17
2023-04-02T04:14:33.592Z,17.80
2023-04-02T04:17:34.812Z,18.13
2023-04-02T04:20:23.995Z,18.20
2023-04-02T04:22:56.057Z,21.08
2023-04-02T04:25:30.075Z,22.00
2023-04-02T04:28:22.169Z,20.45
2023-04-02T04:31:18.171Z,20.95
2023-04-02T04:33:55.604Z,22.88
2023-04-02T04:36:34.093Z,23.52
2023-04-02T04:39:21.482Z,23.05
2023-04-02T04:41:52.090Z,22.98
2023-04-02T04:44:51.338Z,23.75
2023-04-02T04:47:26.458Z,26.00
2023-04-02T04:50:24.685Z,24.80
2023-04-02T04:52:52.738Z,24.33
2023-04-02T04:55:39.776Z,23.33
2023-04-02T04:58:23.714Z,24.40
2023-04-02T05:01:02.015Z,22.95
2023-04-02T05:04:16.594Z,22.38
2023-04-02T05:07:02.943Z,22.30
2023-04-02T05:09:41.472Z,23.10
2023-04-02T05:12:56.791Z,23.13
2023-04-02T05:15:35.687Z,26.33
2023-04-02T05:18:23.357Z,23.42
2023-04-02T05:21:08.295Z,22.83
2023-04-02T05:24:04.828Z,24.10
2023-04-02T05:26:40.972Z,22.63
2023-04-02T05:29:34.358Z,24.02
2023-04-02T05:32:28.626Z,24.98
2023-04-02T05:34:57.364Z,25.77
2023-04-02T05:37:28.886Z,24.90
2023-04-02T05:40:14.722Z,24.17
2023-04-02T05:42:49.502Z,23.80
2023-04-02T05:45:33.427Z,23.73
2023-04-02T05:48:17.355Z,25.10
2023-04-02T05:50:58.888Z,24.80
2023-04-02T05:53:38.187Z,24.73
2023-04-02T05:56:21.281Z,25.73
2023-04-02T05:59:16.319Z,24.08
2023-04-02T06:01:47.553Z,23.75
2023-04-02T06:04:37.005Z,24.83
2023-04-02T06:07:26.134Z,27.05
2023-04-02T06:10:26.241Z,24.90
2023-04-02T06:13:06.666Z,25.48
2023-04-02T06:15:38.873Z,26.92
2023-04-02T06:18:21.250Z,23.20
2023-04-02T06:20:50.145Z,25.35
2023-04-02T06:23:41.968Z,25.40
2023-04-02T06:26:38.420Z,26.17
2023-04-02T06:29:26.974Z,26.10
2023-04-02T06:32:00.546Z,25.38
2023-04-02T06:34:30.395Z,26.88
2023-04-02T06:37:21.466Z,26.95
2023-04-02T06:39:51.708Z,26.77
2023-04-02T06:42:32.043Z,26.02
2023-04-02T06:45:41.577Z,26.95
2023-04-02T06:48:18.423Z,27.25
2023-04-02T06:51:02.318Z,26.92
2023-04-02T06:53:37.789Z,26.67
2023-04-02T06:56:44.008Z,27.58
2023-04-02T06:59:15.889Z,24.95
2023-04-02T07:01:55.630Z,26.27
2023-04-02T07:04:23.966Z,26.00
2023-04-02T07:06:54.177Z,27.25
2023-04-02T07:09:23.929Z,28.17
2023-04-02T07:11:54.767Z,27.58
2023-04-02T07:14:21.890Z,27.83
2023-04-02T07:16:49.033Z,26.77
2023-04-02T07:19:23.028Z,27.15
2023-04-02T07:21:54.510Z,25.65
2023-04-02T07:24:22.941Z,26.67
2023-04-02T07:26:49.946Z,25.08
2023-04-02T07:29:18.002Z,23.67
2023-04-02T07:31:45.378Z,22.60
2023-04-02T07:34:12.520Z,22.42
2023-04-02T07:36:39.577Z,21.98
2023-04-02T07:39:06.615Z,20.83
2023-04-02T07:41:33.750Z,19.90
2023-04-02T07:44:01.369Z,21.33
2023-04-02T07:46:28.415Z,20.80
2023-04-02T07:48:55.499Z,31.58
2023-04-02T07:51:26.717Z,23.90
2023-04-02T07:53:56.204Z,22.38
2023-04-02T07:56:25.492Z,23.48
2023-04-02T07:58:52.703Z,24.23
2023-04-02T08:01:24.612Z,22.42
2023-04-02T08:03:54.916Z,22.70
2023-04-02T08:06:23.615Z,23.45
2023-04-02T08:08:51.192Z,20.48
2023-04-02T08:11:18.512Z,20.35
2023-04-02T08:13:45.602Z,21.45
2023-04-02T08:16:12.752Z,18.98
2023-04-02T08:18:40.211Z,19.67
2023-04-02T08:21:09.857Z,21.20
2023-04-02T08:23:38.487Z,20.50
2023-04-02T08:26:06.643Z,18.23
2023-04-02T08:28:34.291Z,18.45
2023-04-02T08:31:02.222Z,17.85
2023-04-02T08:33:29.454Z,16.85
2023-04-02T08:35:56.791Z,15.55
2023-04-02T08:38:25.876Z,16.50
2023-04-02T08:40:56.935Z,15.95
2023-04-02T08:43:39.183Z,16.77
2023-04-02T08:46:33.850Z,16.73
2023-04-02T08:51:36.825Z,17.85
2023-04-02T08:54:18.178Z,17.10
2023-04-02T08:56:56.246Z,17.08
2023-04-02T08:59:37.216Z,17.38
2023-04-02T09:02:26.063Z,18.38
2023-04-02T09:04:53.438Z,18.90
2023-04-02T09:07:20.913Z,18.75
2023-04-02T09:09:50.044Z,23.02
2023-04-02T09:12:21.446Z,19.60
2023-04-02T09:15:35.991Z,20.13
2023-04-02T09:18:19.233Z,20.60
2023-04-02T09:20:48.168Z,21.00
2023-04-02T09:23:24.585Z,20.70
2023-04-02T09:26:03.521Z,20.45
2023-04-02T09:28:32.420Z,21.10
2023-04-02T09:31:20.925Z,21.10
2023-04-02T09:33:51.566Z,20.52
2023-04-02T09:36:38.943Z,21.60
2023-04-02T09:39:21.709Z,23.00
2023-04-02T09:41:59.051Z,22.80
2023-04-02T09:44:31.885Z,20.40
2023-04-02T09:47:04.065Z,20.10
2023-04-02T09:49:37.508Z,18.50
2023-04-02T09:52:18.881Z,17.35
2023-04-02T09:54:48.325Z,16.35
2023-04-02T09:57:23.846Z,15.55
2023-04-02T10:03:06.013Z,14.00
2023-04-02T10:05:39.849Z,14.85
2023-04-02T10:08:25.669Z,16.20
2023-04-02T10:13:29.415Z,13.18
2023-04-02T10:16:47.082Z,13.25
2023-04-02T10:19:34.123Z,14.32
2023-04-02T10:22:06.442Z,15.45
2023-04-02T10:24:33.795Z,15.90
2023-04-02T10:27:51.976Z,15.80
2023-04-02T10:30:57.028Z,15.25
2023-04-02T10:36:58.697Z,13.30
2023-04-02T10:39:38.274Z,13.50
2023-04-02T10:42:45.091Z,15.05
2023-04-02T10:45:42.826Z,16.23
2023-04-02T10:48:38.772Z,12.32
2023-04-02T10:51:43.242Z,13.02
2023-04-02T10:54:13.040Z,12.13
2023-04-02T10:56:50.675Z,9.75
2023-04-02T10:59:35.581Z,13.93
2023-04-02T11:02:23.409Z,19.02
2023-04-02T11:04:52.598Z,11.60
2023-04-02T11:07:27.342Z,11.52
2023-04-02T11:12:42.210Z,11.15
2023-04-02T11:15:18.545Z,5.55
2023-04-02T11:17:46.963Z,7.65
2023-04-02T11:20:47.773Z,8.10
2023-04-02T11:23:19.845Z,7.80
2023-04-02T11:25:47.755Z,7.20
2023-04-02T11:28:30.570Z,6.28
2023-04-02T11:30:58.512Z,5.95
2023-04-02T11:33:38.323Z,5.72
2023-04-02T11:36:51.610Z,4.20
2023-04-02T11:39:49.648Z,4.60
2023-04-02T11:42:19.746Z,5.88
2023-04-02T11:44:46.786Z,5.55
2023-04-02T11:47:25.894Z,4.80
2023-04-02T11:49:56.614Z,5.18
2023-04-02T11:52:53.219Z,4.50
2023-04-02T11:55:31.579Z,4.95
2023-04-02T11:58:54.618Z,4.78
2023-04-02T12:01:45.788Z,5.35
2023-04-02T12:04:32.165Z,4.20
2023-04-02T12:07:21.321Z,3.33
2023-04-02T12:10:19.715Z,3.10
2023-04-02T12:12:47.274Z,2.88
2023-04-02T12:15:32.670Z,2.25
2023-04-02T12:18:11.952Z,1.98
2023-04-02T12:20:39.318Z,1.75
2023-04-02T12:23:06.751Z,2.53
2023-04-02T12:25:40.321Z,1.75
2023-04-02T12:28:10.356Z,1.63
2023-04-02T12:30:38.914Z,1.92
2023-04-02T12:33:22.263Z,2.47
2023-04-02T12:35:57.588Z,1.38
2023-04-02T12:38:43.592Z,1.15
2023-04-02T12:41:37.176Z,0.80
2023-04-02T12:44:11.631Z,2.38
2023-04-02T12:46:40.048Z,1.60
2023-04-02T12:49:20.604Z,1.50
2023-04-02T12:51:48.626Z,1.20
2023-04-02T12:54:17.973Z,0.50
2023-04-02T12:56:45.549Z,0.70
2023-04-02T12:59:36.534Z,0.25
2023-04-02T13:02:19.665Z,0.30
2023-04-02T13:05:01.064Z,0.50
2023-04-02T13:07:33.760Z,0.30
2023-04-02T13:10:04.787Z,0.30
2023-04-02T13:12:39.963Z,0.40
2023-04-02T13:15:21.560Z,0.47
2023-04-02T13:18:04.767Z,0.40
2023-04-02T13:21:05.341Z,0.50
2023-04-02T13:23:37.037Z,0.30
2023-04-02T13:26:22.059Z,0.40
2023-04-02T13:29:04.142Z,0.22
2023-04-02T13:31:32.838Z,0.47
2023-04-02T13:33:59.955Z,0.57
2023-04-02T13:36:29.502Z,1.00
2023-04-02T13:38:57.325Z,0.20
2023-04-02T13:41:27.950Z,0.50
2023-04-02T13:43:58.141Z,1.40
2023-04-02T13:46:29.674Z,0.20
2023-04-02T13:48:58.394Z,0.35
2023-04-02T13:51:41.490Z,0.20
2023-04-02T13:54:20.828Z,0.98
2023-04-02T13:56:48.238Z,2.17
2023-04-02T13:59:16.148Z,0.55
2023-04-02T14:01:45.639Z,0.30
2023-04-02T14:04:22.416Z,0.10
2023-04-02T14:07:14.947Z,0.38
2023-04-02T14:09:59.870Z,2.47
2023-04-02T14:13:05.660Z,0.65
2023-04-02T14:16:08.748Z,0.32
2023-04-02T14:19:10.126Z,0.40
2023-04-02T14:22:08.243Z,1.05
2023-04-02T14:25:02.761Z,0.40
2023-04-02T14:27:57.985Z,0.68
2023-04-02T14:30:47.808Z,0.50
2023-04-02T14:33:36.597Z,3.67
2023-04-02T14:36:19.704Z,1.08
2023-04-02T14:39:05.648Z,0.60
2023-04-02T14:41:44.879Z,0.50
2023-04-02T14:44:13.025Z,0.20
2023-04-02T14:46:40.262Z,0.77
2023-04-02T14:49:39.998Z,0.80
2023-04-02T14:52:14.512Z,0.38
2023-04-02T14:54:55.421Z,0.82
2023-04-02T14:57:30.710Z,0.68
2023-04-02T15:00:03.838Z,0.52
2023-04-02T15:02:43.013Z,0.43
2023-04-02T15:05:19.392Z,0.60
2023-04-02T15:08:03.708Z,0.60
2023-04-02T15:13:07.827Z,0.60
2023-04-02T15:15:57.703Z,0.65
2023-04-02T15:18:25.630Z,0.60
2023-04-02T15:21:19.986Z,0.70
2023-04-02T15:27:37.359Z,0.52
2023-04-02T15:30:14.787Z,0.52
2023-04-02T15:32:43.817Z,0.60
2023-04-02T15:35:40.933Z,0.32
2023-04-02T15:38:23.920Z,0.40
2023-04-02T15:41:02.986Z,0.32
2023-04-02T15:44:05.274Z,1.55
2023-04-02T15:47:15.148Z,0.63
2023-04-02T15:49:59.502Z,1.25
2023-04-02T15:52:58.848Z,0.40
2023-04-02T15:56:16.724Z,0.50
2023-04-02T15:58:47.714Z,0.40
2023-04-02T16:01:23.910Z,0.40
2023-04-02T16:03:56.626Z,0.60
2023-04-02T16:06:28.121Z,0.40
2023-04-02T16:09:27.469Z,0.55
2023-04-02T16:12:16.040Z,0.45
2023-04-02T16:14:47.706Z,0.30
2023-04-02T16:17:35.540Z,0.30
2023-04-02T16:20:27.488Z,0.75
2023-04-02T16:23:11.364Z,0.30
2023-04-02T16:26:02.801Z,0.60
2023-04-02T16:28:38.431Z,0.40
2023-04-02T16:31:24.582Z,0.40
2023-04-02T16:34:09.442Z,0.30
2023-04-02T16:36:55.393Z,0.25
2023-04-02T16:39:42.186Z,0.32
2023-04-02T16:42:49.753Z,0.25
2023-04-02T16:45:57.191Z,0.30
2023-04-02T16:48:52.938Z,0.30
2023-04-02T16:51:53.328Z,0.45
2023-04-02T16:54:39.722Z,0.52
2023-04-02T16:57:38.126Z,0.30
2023-04-02T17:00:33.609Z,0.30
2023-04-02T17:03:19.195Z,0.22
2023-04-02T17:06:45.392Z,0.32
2023-04-02T17:09:19.637Z,0.20
2023-04-02T17:12:16.295Z,0.20
2023-04-02T17:14:57.479Z,0.38
2023-04-02T17:17:24.888Z,0.30
2023-04-02T17:19:59.873Z,0.30
2023-04-02T17:22:31.353Z,0.30
2023-04-02T17:25:02.449Z,0.30
2023-04-02T17:27:36.119Z,0.40
2023-04-02T17:30:29.274Z,0.40
2023-04-02T17:32:56.356Z,0.30
2023-04-02T17:35:45.123Z,0.30
2023-04-02T17:38:31.503Z,0.40
2023-04-02T17:41:44.146Z,0.55
2023-04-02T17:44:46.996Z,0.30
2023-04-02T17:47:23.070Z,68.97
2023-04-02T17:50:30.419Z,2.28
2023-04-02T17:53:34.420Z,12.00
2023-04-02T17:56:27.381Z,0.10
2023-04-02T17:59:11.161Z,0.05
2023-04-02T18:01:54.796Z,0.10
2023-04-02T18:04:39.576Z,0.10
2023-04-02T18:07:27.909Z,0.15
2023-04-02T18:10:35.191Z,0.10
2023-04-02T18:13:13.878Z,0.10
2023-04-02T18:16:14.721Z,0.10
2023-04-02T18:19:21.379Z,1.10
2023-04-02T18:22:06.383Z,1.15
2023-04-02T18:25:03.597Z,0.50
2023-04-02T18:27:53.974Z,0.40
2023-04-02T18:30:38.836Z,3.88
2023-04-02T18:33:28.358Z,1.17
2023-04-02T18:36:45.645Z,0.30
2023-04-02T18:39:28.956Z,0.30
2023-04-02T18:42:32.765Z,0.30
2023-04-02T18:46:06.534Z,0.20
2023-04-02T18:48:50.223Z,0.85
2023-04-02T18:51:23.415Z,0.50
2023-04-02T18:54:04.239Z,0.50
2023-04-02T18:56:32.483Z,0.40
2023-04-02T18:59:30.889Z,0.30
2023-04-02T19:02:01.237Z,0.30
2023-04-02T19:04:31.826Z,0.55
2023-04-02T19:07:16.435Z,0.52
2023-04-02T19:09:47.684Z,0.55
2023-04-02T19:12:23.703Z,0.80
2023-04-02T19:14:52.495Z,0.88
2023-04-02T19:17:42.410Z,2.22
2023-04-02T19:20:36.733Z,1.75
2023-04-02T19:23:37.771Z,2.42
2023-04-02T19:26:14.324Z,2.08
2023-04-02T19:29:08.911Z,2.72
2023-04-02T19:34:38.962Z,2.60
2023-04-02T19:37:16.847Z,2.17
2023-04-02T19:40:17.785Z,1.42
2023-04-02T19:42:48.820Z,2.08
2023-04-02T19:45:32.976Z,2.25
2023-04-02T19:48:13.872Z,3.30
2023-04-02T19:50:41.666Z,2.60
2023-04-02T19:53:09.005Z,3.55
2023-04-02T19:55:36.554Z,4.57
2023-04-02T19:58:17.575Z,3.03
2023-04-02T20:00:46.688Z,3.53
2023-04-02T20:03:14.186Z,3.10
2023-04-02T20:05:41.205Z,3.08
2023-04-02T20:08:10.403Z,4.03
2023-04-02T20:10:37.827Z,4.82
2023-04-02T20:13:04.985Z,5.47
2023-04-02T20:15:32.472Z,6.03
2023-04-02T20:17:59.600Z,4.32
2023-04-02T20:20:27.292Z,4.38
2023-04-02T20:22:55.371Z,4.57
2023-04-02T20:25:23.298Z,5.82
2023-04-02T20:27:50.383Z,5.57
2023-04-02T20:30:17.701Z,4.68
2023-04-02T20:32:48.800Z,4.88
2023-04-02T20:35:16.979Z,5.03
2023-04-02T20:37:44.406Z,4.72
2023-04-02T20:40:11.578Z,4.15
2023-04-02T20:42:38.593Z,4.22
2023-04-02T20:45:07.724Z,3.70
2023-04-02T20:47:34.760Z,3.80
2023-04-02T20:50:02.456Z,3.80
2023-04-02T20:52:30.398Z,4.15
2023-04-02T20:54:57.504Z,3.42
2023-04-02T20:57:26.337Z,3.60
2023-04-02T20:59:54.626Z,3.40
2023-04-02T21:02:22.191Z,3.10
2023-04-02T21:04:49.340Z,3.70
2023-04-02T21:07:16.284Z,3.95
2023-04-02T21:09:43.269Z,4.47
2023-04-02T21:12:11.591Z,3.63
2023-04-02T21:14:40.097Z,3.40
2023-04-02T21:17:07.777Z,4.22
2023-04-02T21:19:35.716Z,3.45
2023-04-02T21:22:03.681Z,3.42
2023-04-02T21:24:30.695Z,4.30
2023-04-02T21:26:57.709Z,3.92
2023-04-02T21:29:24.664Z,4.68
2023-04-02T21:31:52.503Z,5.13
2023-04-02T21:34:19.659Z,4.85
2023-04-02T21:36:48.376Z,5.43
2023-04-02T21:39:23.789Z,4.20
2023-04-02T21:41:53.213Z,4.53
2023-04-02T21:44:22.581Z,5.13
2023-04-02T21:46:51.891Z,5.00
2023-04-02T21:49:22.820Z,4.15
2023-04-02T21:51:54.206Z,4.05
2023-04-02T21:54:21.685Z,4.65
2023-04-02T21:56:49.523Z,5.18
2023-04-02T21:59:17.817Z,5.50
2023-04-02T22:01:49.057Z,4.22
2023-04-02T22:04:25.701Z,4.63
2023-04-02T22:06:55.797Z,4.60
2023-04-02T22:09:25.056Z,4.20
2023-04-02T22:11:59.203Z,3.83
2023-04-02T22:14:27.588Z,3.78
2023-04-02T22:16:55.711Z,4.65
2023-04-02T22:19:22.956Z,4.30
2023-04-02T22:21:50.676Z,4.25
2023-04-02T22:24:19.359Z,4.35
2023-04-02T22:26:47.084Z,6.13
2023-04-02T22:29:14.907Z,5.80
2023-04-02T22:31:41.986Z,5.53
2023-04-02T22:34:09.606Z,5.40
2023-04-02T22:36:36.731Z,5.95
2023-04-02T22:39:07.078Z,5.50
2023-04-02T22:41:34.267Z,5.03
2023-04-02T22:44:02.402Z,4.80
2023-04-02T22:46:30.692Z,5.40
2023-04-02T22:48:58.084Z,5.63
2023-04-02T22:51:27.973Z,4.93
2023-04-02T22:53:56.539Z,5.53
2023-04-02T22:56:32.044Z,6.03
2023-04-02T22:58:59.430Z,5.65
2023-04-02T23:01:32.820Z,4.90
2023-04-02T23:03:59.951Z,4.70
2023-04-02T23:06:27.910Z,4.72
2023-04-02T23:08:54.912Z,4.80
2023-04-02T23:11:26.014Z,5.28
2023-04-02T23:13:56.672Z,5.13
2023-04-02T23:16:27.262Z,4.45
2023-04-02T23:18:55.478Z,5.43
2023-04-02T23:21:23.325Z,5.03
2023-04-02T23:23:51.095Z,5.15
2023-04-02T23:26:25.020Z,5.57
2023-04-02T23:28:52.078Z,5.25
2023-04-02T23:31:22.537Z,5.35
2023-04-02T23:33:51.889Z,6.05
2023-04-02T23:36:24.603Z,4.63
2023-04-02T23:38:55.350Z,5.07
2023-04-02T23:41:25.156Z,5.20
2023-04-02T23:43:52.778Z,5.32
2023-04-02T23:46:20.593Z,5.70
2023-04-02T23:48:50.589Z,6.05
2023-04-02T23:51:20.411Z,5.07
2023-04-02T23:53:49.229Z,5.68
2023-04-02T23:56:17.440Z,5.13
2023-04-02T23:58:44.608Z,5.88
